Time;durP1;ratioP1;P1;durP2;ratioP2;P2;SDS_P1;SDS_P2;PMS_P1;PMS_P2;Temp;Humidity;BMP_temperature;BMP_pressure;BME280_temperature;BME280_humidity;BME280_pressure;Samples;Min_cycle;Max_cycle;Signal;HPM_P1;HPM_P2
2022/01/30 00:01:08;;;;;;;1.20;1.10;;;4.80;99.90;;;;;;4994076;28;20705;-57
2022/01/30 00:03:34;;;;;;;1.00;1.00;;;4.80;99.90;;;;;;5003897;28;20440;-58
2022/01/30 00:05:59;;;;;;;0.93;0.93;;;4.80;99.90;;;;;;4997850;28;20581;-56
2022/01/30 00:08:25;;;;;;;1.80;1.33;;;4.80;99.90;;;;;;4997983;28;20181;-56
2022/01/30 00:10:57;;;;;;;0.80;0.80;;;4.80;99.90;;;;;;5008064;28;20192;-58
2022/01/30 00:13:25;;;;;;;1.00;1.00;;;4.80;99.90;;;;;;4995545;28;20681;-56
2022/01/30 00:15:53;;;;;;;0.93;0.90;;;4.80;99.90;;;;;;4999275;28;20451;-56
2022/01/30 00:19:08;;;;;;;0.80;0.80;;;4.80;99.90;;;;;;4992412;28;20471;-57
2022/01/30 00:21:30;;;;;;;1.27;1.13;;;4.80;99.90;;;;;;5005628;28;20431;-57
2022/01/30 00:26:48;;;;;;;0.80;0.80;;;4.80;99.90;;;;;;4994475;28;21050;-57
2022/01/30 00:29:14;;;;;;;0.73;0.73;;;4.70;99.90;;;;;;5005863;28;20462;-57
2022/01/30 00:31:39;;;;;;;1.00;0.90;;;4.70;99.90;;;;;;5004903;28;20206;-57
2022/01/30 00:34:06;;;;;;;0.80;0.80;;;4.70;99.90;;;;;;5000190;28;20518;-56
2022/01/30 00:36:32;;;;;;;1.00;0.90;;;4.70;99.90;;;;;;5004084;28;20199;-57
2022/01/30 00:38:58;;;;;;;0.80;0.80;;;4.70;99.90;;;;;;4996751;28;20467;-57
2022/01/30 00:41:24;;;;;;;0.97;0.97;;;4.70;99.90;;;;;;5001709;28;20790;-57
2022/01/30 00:43:50;;;;;;;0.90;0.80;;;4.70;99.90;;;;;;4997607;28;20442;-57
2022/01/30 00:46:16;;;;;;;2.00;0.70;;;4.70;99.90;;;;;;5001173;28;20597;-57
2022/01/30 00:48:41;;;;;;;1.30;0.90;;;4.60;99.90;;;;;;4997152;28;20215;-58
2022/01/30 00:51:07;;;;;;;0.90;0.90;;;4.60;99.90;;;;;;5000901;28;20626;-56
2022/01/30 00:53:33;;;;;;;0.70;0.70;;;4.60;99.90;;;;;;5000815;28;20253;-56
2022/01/30 00:55:58;;;;;;;0.70;0.70;;;4.60;99.90;;;;;;4998429;28;20279;-56
2022/01/30 00:58:24;;;;;;;0.90;0.90;;;4.60;99.90;;;;;;5005626;28;20564;-57
2022/01/30 01:00:50;;;;;;;2.00;0.83;;;4.60;99.90;;;;;;5002701;28;20179;-58
2022/01/30 01:03:17;;;;;;;0.90;0.90;;;4.60;99.90;;;;;;4992070;28;20659;-56
2022/01/30 01:05:43;;;;;;;0.70;0.70;;;4.60;99.90;;;;;;5005098;28;20208;-56
2022/01/30 01:08:14;;;;;;;1.10;0.90;;;4.60;99.90;;;;;;5004901;28;20538;-56
2022/01/30 01:10:46;;;;;;;0.77;0.77;;;4.60;99.90;;;;;;4999765;28;20599;-56
2022/01/30 01:23:56;;;;;;;0.70;0.70;;;4.60;99.90;;;;;;5006975;28;20441;-57
2022/01/30 01:26:23;;;;;;;0.73;0.73;;;4.60;99.90;;;;;;5002393;28;20490;-56
2022/01/30 01:28:49;;;;;;;0.80;0.80;;;4.60;99.90;;;;;;4995211;28;21002;-56
2022/01/30 01:36:20;;;;;;;0.73;0.73;;;4.60;99.90;;;;;;5024678;28;20438;-62
2022/01/30 01:38:46;;;;;;;0.70;0.70;;;4.60;99.90;;;;;;5024019;28;20844;-61
2022/01/30 01:41:12;;;;;;;0.67;0.67;;;4.60;99.90;;;;;;5023243;28;20762;-62
2022/01/30 01:43:38;;;;;;;0.83;0.83;;;4.70;99.90;;;;;;5025793;28;20533;-61
2022/01/30 01:46:12;;;;;;;1.30;0.70;;;4.70;99.90;;;;;;5027910;28;20786;-61
2022/01/30 01:48:38;;;;;;;1.03;0.97;;;4.70;99.90;;;;;;5024366;28;20438;-62
2022/01/30 01:51:14;;;;;;;1.50;1.10;;;4.70;99.90;;;;;;5027183;28;20459;-61
2022/01/30 01:53:40;;;;;;;1.10;1.00;;;4.70;99.90;;;;;;5027112;28;20211;-61
2022/01/30 01:56:06;;;;;;;1.17;1.10;;;4.70;99.90;;;;;;5028851;28;20943;-61
2022/01/30 01:58:32;;;;;;;0.77;0.77;;;4.70;99.90;;;;;;5027609;28;20206;-61
2022/01/30 02:00:59;;;;;;;1.50;0.80;;;4.70;99.90;;;;;;5024660;28;20548;-61
2022/01/30 02:03:26;;;;;;;0.93;0.83;;;4.60;99.90;;;;;;5026470;28;20192;-61
2022/01/30 02:05:54;;;;;;;0.70;0.70;;;4.60;99.90;;;;;;5029267;28;20442;-61
2022/01/30 02:11:32;;;;;;;0.80;0.80;;;4.70;99.90;;;;;;5027168;28;20456;-61
2022/01/30 02:14:21;;;;;;;0.70;0.70;;;4.70;99.90;;;;;;5025755;28;20462;-61
2022/01/30 02:27:32;;;;;;;2.27;0.90;;;4.70;99.90;;;;;;5028315;28;20441;-61
2022/01/30 02:29:58;;;;;;;0.70;0.70;;;4.70;99.90;;;;;;5026534;28;20203;-62
2022/01/30 02:32:24;;;;;;;0.80;0.80;;;4.70;99.90;;;;;;5030539;28;20462;-61
2022/01/30 02:34:50;;;;;;;0.80;0.80;;;4.60;99.90;;;;;;5028649;28;20453;-61
2022/01/30 02:37:17;;;;;;;0.80;0.80;;;4.60;99.90;;;;;;5028603;28;20453;-62
2022/01/30 02:39:43;;;;;;;0.80;0.80;;;4.60;99.90;;;;;;5019402;28;20226;-61
2022/01/30 02:42:13;;;;;;;0.80;0.80;;;4.60;99.90;;;;;;5021348;28;20446;-62
2022/01/30 02:44:46;;;;;;;0.90;0.90;;;4.60;99.90;;;;;;5027224;28;20195;-62
2022/01/30 02:47:23;;;;;;;1.70;0.80;;;4.60;99.90;;;;;;5028725;28;20434;-61
2022/01/30 02:52:36;;;;;;;0.70;0.70;;;4.60;99.90;;;;;;5026732;28;20817;-61
2022/01/30 02:55:03;;;;;;;0.83;0.80;;;4.60;99.90;;;;;;5018940;28;20893;-61
2022/01/30 02:57:29;;;;;;;0.80;0.80;;;4.60;99.90;;;;;;5025553;28;20568;-60
2022/01/30 02:59:54;;;;;;;0.90;0.90;;;4.70;99.90;;;;;;5021077;28;20430;-62
2022/01/30 03:02:20;;;;;;;1.10;1.00;;;4.70;99.90;;;;;;5020015;28;20200;-61
2022/01/30 03:04:46;;;;;;;0.90;0.90;;;4.70;99.90;;;;;;5022088;28;20175;-61
2022/01/30 03:07:11;;;;;;;1.00;0.90;;;4.70;99.90;;;;;;5030306;28;20186;-61
2022/01/30 03:09:37;;;;;;;0.70;0.70;;;4.70;99.90;;;;;;5031158;28;20168;-61
2022/01/30 03:12:04;;;;;;;0.83;0.83;;;4.70;99.90;;;;;;5025901;28;20656;-61
2022/01/30 03:14:30;;;;;;;0.83;0.83;;;4.70;99.90;;;;;;5029212;28;20187;-61
2022/01/30 03:16:55;;;;;;;0.80;0.80;;;4.70;99.90;;;;;;5028302;28;20778;-61
2022/01/30 03:19:21;;;;;;;0.80;0.73;;;4.70;99.90;;;;;;5022883;28;20435;-62
2022/01/30 03:21:47;;;;;;;0.80;0.80;;;4.70;99.90;;;;;;5028323;28;20584;-62
2022/01/30 03:24:12;;;;;;;0.80;0.80;;;4.70;99.90;;;;;;5030334;28;20641;-61
2022/01/30 03:26:40;;;;;;;0.70;0.70;;;4.70;99.90;;;;;;5021177;28;20203;-61
2022/01/30 03:29:07;;;;;;;0.70;0.70;;;4.70;99.90;;;;;;5027800;28;20573;-61
2022/01/30 03:31:39;;;;;;;0.80;0.80;;;4.70;99.90;;;;;;5025221;28;20964;-62
2022/01/30 03:34:07;;;;;;;0.67;0.63;;;4.70;99.90;;;;;;5029615;28;20812;-62
2022/01/30 03:36:34;;;;;;;0.80;0.80;;;4.70;99.90;;;;;;5019314;28;20974;-61
2022/01/30 03:38:59;;;;;;;0.70;0.70;;;4.70;99.90;;;;;;5025640;28;20438;-62
2022/01/30 03:41:26;;;;;;;0.80;0.80;;;4.70;99.90;;;;;;5020046;28;20420;-62
2022/01/30 03:43:52;;;;;;;1.07;0.90;;;4.80;99.90;;;;;;5026321;28;20223;-61
2022/01/30 03:46:20;;;;;;;1.00;1.00;;;4.80;99.90;;;;;;5028870;28;20487;-61
2022/01/30 03:48:46;;;;;;;0.70;0.70;;;4.80;99.90;;;;;;5028517;28;20438;-62
2022/01/30 03:51:11;;;;;;;0.70;0.70;;;4.80;99.90;;;;;;5024917;28;20435;-61
2022/01/30 03:53:37;;;;;;;0.70;0.70;;;4.80;99.90;;;;;;5027474;28;20552;-61
2022/01/30 03:56:04;;;;;;;0.90;0.90;;;4.80;99.90;;;;;;5027444;28;20187;-62
2022/01/30 03:58:30;;;;;;;0.83;0.83;;;4.80;99.90;;;;;;5018295;28;20636;-62
2022/01/30 04:00:56;;;;;;;0.90;0.90;;;4.80;99.90;;;;;;5026918;28;20430;-62
2022/01/30 04:03:22;;;;;;;0.90;0.90;;;4.80;99.90;;;;;;5023342;28;21447;-62
2022/01/30 04:05:48;;;;;;;1.07;1.03;;;4.80;99.90;;;;;;5028230;28;20191;-62
2022/01/30 04:08:14;;;;;;;0.80;0.80;;;4.80;99.90;;;;;;5019010;28;20314;-61
2022/01/30 04:10:40;;;;;;;0.80;0.80;;;4.80;99.90;;;;;;5020950;28;20589;-61
2022/01/30 04:13:05;;;;;;;1.33;0.83;;;4.80;99.90;;;;;;5023185;28;20717;-61
2022/01/30 04:15:31;;;;;;;0.90;0.90;;;4.80;99.90;;;;;;5023567;28;20587;-62
2022/01/30 04:17:57;;;;;;;1.00;0.90;;;4.80;99.90;;;;;;5019161;28;20276;-62
2022/01/30 04:20:23;;;;;;;0.70;0.70;;;4.80;99.90;;;;;;5025692;28;20439;-62
2022/01/30 04:22:49;;;;;;;0.87;0.87;;;4.80;99.90;;;;;;5024900;28;20195;-62
2022/01/30 04:25:14;;;;;;;0.77;0.77;;;4.80;99.90;;;;;;5028284;28;20182;-62
2022/01/30 04:27:40;;;;;;;1.57;0.87;;;4.80;99.90;;;;;;5024546;28;20191;-62
2022/01/30 04:30:07;;;;;;;0.70;0.70;;;4.80;99.90;;;;;;5028160;28;20266;-62
2022/01/30 04:32:34;;;;;;;0.80;0.80;;;4.90;99.90;;;;;;5020862;28;20710;-61
2022/01/30 04:35:09;;;;;;;0.70;0.70;;;4.90;99.90;;;;;;5019404;28;20952;-62
2022/01/30 04:37:57;;;;;;;0.80;0.80;;;4.90;99.90;;;;;;5021352;28;20465;-61
2022/01/30 05:04:25;;;;;;;0.90;0.90;;;4.80;99.90;;;;;;5024933;28;20172;-62
2022/01/30 05:07:25;;;;;;;1.23;0.90;;;4.80;99.90;;;;;;5017793;28;20243;-60
2022/01/30 05:09:37;;;;;;;0.90;0.90;;;4.80;99.90;;;;;;5016086;28;20584;-61
2022/01/30 05:12:03;;;;;;;0.93;0.93;;;4.80;99.90;;;;;;5023115;28;20877;-61
2022/01/30 05:14:34;;;;;;;1.00;0.90;;;4.80;99.90;;;;;;5026250;28;20422;-61
2022/01/30 05:17:00;;;;;;;1.47;1.20;;;4.80;99.90;;;;;;5015098;28;20454;-62
2022/01/30 05:19:26;;;;;;;1.03;0.93;;;4.90;99.90;;;;;;5021363;28;20438;-61
2022/01/30 05:21:52;;;;;;;0.80;0.80;;;4.80;99.90;;;;;;5020668;28;20437;-61
2022/01/30 05:24:18;;;;;;;1.33;1.00;;;4.80;99.90;;;;;;5019363;28;20437;-61
2022/01/30 05:26:44;;;;;;;1.20;1.00;;;4.80;99.90;;;;;;5017098;28;20435;-61
2022/01/30 05:29:10;;;;;;;1.87;1.20;;;4.80;99.90;;;;;;5025271;28;20183;-61
2022/01/30 05:31:37;;;;;;;0.87;0.87;;;4.80;99.90;;;;;;5030669;28;20403;-61
2022/01/30 05:34:03;;;;;;;1.10;1.00;;;4.80;99.90;;;;;;5027721;28;20423;-61
2022/01/30 05:36:30;;;;;;;1.20;1.10;;;4.80;99.90;;;;;;5031053;28;20813;-61
2022/01/30 05:38:57;;;;;;;0.90;0.80;;;4.70;99.90;;;;;;5015918;28;20454;-61
2022/01/30 05:41:24;;;;;;;0.90;0.90;;;4.70;99.90;;;;;;5025997;28;20431;-62
2022/01/30 05:43:54;;;;;;;1.17;1.07;;;4.70;99.90;;;;;;5020928;28;20777;-61
2022/01/30 05:46:31;;;;;;;0.80;0.80;;;4.70;99.90;;;;;;5030234;28;21121;-61
2022/01/30 05:48:57;;;;;;;0.90;0.90;;;4.70;99.90;;;;;;5026230;28;20430;-62
2022/01/30 05:51:23;;;;;;;1.00;0.90;;;4.70;99.90;;;;;;5029977;28;20411;-60
2022/01/30 05:53:48;;;;;;;0.87;0.87;;;4.60;99.90;;;;;;5027866;28;20680;-61
2022/01/30 05:56:14;;;;;;;1.07;0.90;;;4.60;99.90;;;;;;5032723;28;20176;-61
2022/01/30 05:58:40;;;;;;;0.90;0.90;;;4.60;99.90;;;;;;5027838;28;20204;-61
2022/01/30 06:01:06;;;;;;;0.90;0.90;;;4.70;99.90;;;;;;5029437;28;20267;-61
2022/01/30 06:03:32;;;;;;;0.90;0.90;;;4.70;99.90;;;;;;5029333;28;20537;-61
2022/01/30 06:05:58;;;;;;;0.90;0.90;;;4.70;99.90;;;;;;5028127;28;20699;-61
2022/01/30 06:11:08;;;;;;;1.20;1.10;;;4.70;99.90;;;;;;5022539;28;20558;-61
2022/01/30 06:13:34;;;;;;;1.10;1.00;;;4.70;99.90;;;;;;5019909;28;20595;-61
2022/01/30 06:16:00;;;;;;;0.93;0.93;;;4.70;99.90;;;;;;5028312;28;21029;-61
2022/01/30 06:18:27;;;;;;;1.10;1.10;;;4.60;99.90;;;;;;5030071;28;20199;-61
2022/01/30 06:20:53;;;;;;;1.20;1.10;;;4.60;99.90;;;;;;5023724;28;20926;-61
2022/01/30 06:23:22;;;;;;;0.90;0.90;;;4.60;99.90;;;;;;5023060;28;20442;-61
2022/01/30 06:25:48;;;;;;;1.00;1.00;;;4.60;99.90;;;;;;5025149;28;20832;-61
2022/01/30 06:28:14;;;;;;;1.20;1.10;;;4.60;99.90;;;;;;5025384;28;20434;-60
2022/01/30 06:30:40;;;;;;;2.10;1.20;;;4.60;99.90;;;;;;5028133;28;20626;-61
2022/01/30 06:33:06;;;;;;;1.07;1.07;;;4.60;99.90;;;;;;5023499;28;20524;-61
2022/01/30 06:35:31;;;;;;;1.87;1.60;;;4.60;99.90;;;;;;5029310;28;20236;-61
2022/01/30 06:37:57;;;;;;;1.13;1.03;;;4.60;99.90;;;;;;5023339;28;20204;-61
2022/01/30 06:40:23;;;;;;;1.00;1.00;;;4.50;99.90;;;;;;5028020;28;20622;-61
2022/01/30 06:42:49;;;;;;;0.87;0.87;;;4.50;99.90;;;;;;5027966;28;20192;-60
2022/01/30 06:45:18;;;;;;;0.87;0.87;;;4.50;99.90;;;;;;5025925;28;20183;-61
2022/01/30 06:47:44;;;;;;;2.67;1.27;;;4.50;99.90;;;;;;5027897;28;20954;-61
2022/01/30 06:50:11;;;;;;;1.73;1.63;;;4.50;99.90;;;;;;5029895;28;20437;-61
2022/01/30 06:52:37;;;;;;;0.90;0.90;;;4.50;99.90;;;;;;5025322;28;21037;-60
2022/01/30 06:55:04;;;;;;;1.07;1.00;;;4.50;99.90;;;;;;5028394;28;20441;-62
2022/01/30 06:57:29;;;;;;;1.20;1.10;;;4.50;99.90;;;;;;5029139;28;20494;-62
2022/01/30 06:59:55;;;;;;;1.10;1.10;;;4.50;99.90;;;;;;5024364;28;20481;-61
2022/01/30 07:02:21;;;;;;;1.20;1.10;;;4.50;99.90;;;;;;5027533;28;20192;-61
2022/01/30 07:04:46;;;;;;;2.50;1.30;;;4.50;99.90;;;;;;5028171;28;20267;-61
2022/01/30 07:07:13;;;;;;;2.93;1.60;;;4.50;99.90;;;;;;5030426;28;20187;-62
2022/01/30 07:09:38;;;;;;;1.47;1.30;;;4.50;99.90;;;;;;5027994;28;20632;-62
2022/01/30 07:12:04;;;;;;;1.40;1.30;;;4.50;99.90;;;;;;5027134;28;20485;-61
2022/01/30 07:14:30;;;;;;;1.57;1.27;;;4.40;99.90;;;;;;5024643;28;20199;-61
2022/01/30 07:16:56;;;;;;;1.53;1.10;;;4.50;99.90;;;;;;5027909;28;20579;-61
2022/01/30 07:19:22;;;;;;;1.40;1.10;;;4.50;99.90;;;;;;5027247;28;20240;-61
2022/01/30 07:21:48;;;;;;;1.43;1.20;;;4.50;99.90;;;;;;5020325;28;20874;-61
2022/01/30 07:24:14;;;;;;;1.97;1.40;;;4.50;99.90;;;;;;5019354;28;20176;-62
2022/01/30 07:26:39;;;;;;;1.60;1.50;;;4.50;99.90;;;;;;5018303;28;20584;-63
2022/01/30 07:29:05;;;;;;;1.90;1.70;;;4.50;99.90;;;;;;5015755;28;20179;-61
2022/01/30 07:34:03;;;;;;;2.83;1.60;;;4.50;99.90;;;;;;4971928;28;20218;-55
2022/01/30 07:36:30;;;;;;;2.20;1.90;;;4.50;99.90;;;;;;4977366;28;20428;-54
2022/01/30 07:38:56;;;;;;;1.80;1.70;;;4.50;99.90;;;;;;4974008;28;20491;-55
2022/01/30 07:41:22;;;;;;;2.13;1.60;;;4.50;99.90;;;;;;4978495;28;20433;-55
2022/01/30 07:43:48;;;;;;;1.20;1.10;;;4.50;99.90;;;;;;4995450;28;20227;-54
2022/01/30 07:46:14;;;;;;;4.37;2.77;;;4.60;99.90;;;;;;4999044;28;20500;-55
2022/01/30 07:48:40;;;;;;;4.00;1.70;;;4.60;99.90;;;;;;4999195;28;20442;-52
2022/01/30 07:51:05;;;;;;;1.20;1.10;;;4.60;99.90;;;;;;5002550;28;20664;-56
2022/01/30 07:53:31;;;;;;;1.00;1.00;;;4.70;99.90;;;;;;4999032;28;20284;-54
2022/01/30 07:55:57;;;;;;;1.27;1.17;;;4.70;99.90;;;;;;5000313;28;20183;-55
2022/01/30 07:58:23;;;;;;;1.17;1.07;;;4.70;99.90;;;;;;5008938;28;21277;-55
2022/01/30 08:00:49;;;;;;;1.87;1.37;;;4.70;99.90;;;;;;5003646;28;20174;-56
2022/01/30 08:03:15;;;;;;;1.40;1.30;;;4.80;99.90;;;;;;5004080;28;20916;-54
2022/01/30 08:05:40;;;;;;;1.33;1.23;;;4.80;99.90;;;;;;5002635;28;20263;-54
2022/01/30 08:08:06;;;;;;;4.03;1.60;;;4.80;99.90;;;;;;5004673;28;20192;-56
2022/01/30 08:10:33;;;;;;;1.57;1.47;;;4.80;99.90;;;;;;5007509;28;21047;-56
2022/01/30 08:12:59;;;;;;;1.50;1.40;;;4.80;99.90;;;;;;5005105;28;20254;-56
2022/01/30 08:15:24;;;;;;;1.90;1.33;;;4.80;99.90;;;;;;5003762;28;20438;-54
2022/01/30 08:17:50;;;;;;;1.30;1.20;;;4.90;99.90;;;;;;5005852;28;20456;-56
2022/01/30 08:20:16;;;;;;;2.37;1.37;;;4.90;99.90;;;;;;5005764;28;20180;-56
2022/01/30 08:22:45;;;;;;;1.40;1.30;;;4.90;99.90;;;;;;5006863;28;20382;-56
2022/01/30 08:25:11;;;;;;;1.27;1.17;;;4.90;99.90;;;;;;4997572;28;20253;-56
2022/01/30 08:27:38;;;;;;;2.23;1.50;;;4.90;99.90;;;;;;4996682;28;20508;-57
2022/01/30 08:30:04;;;;;;;2.40;2.20;;;4.90;99.90;;;;;;4994204;28;20277;-57
2022/01/30 08:32:30;;;;;;;2.20;1.70;;;4.90;99.90;;;;;;4992883;28;20474;-56
2022/01/30 08:34:55;;;;;;;1.70;1.50;;;4.90;99.90;;;;;;4995189;28;20441;-56
2022/01/30 08:37:21;;;;;;;2.77;2.00;;;4.90;99.90;;;;;;4992305;28;20205;-55
2022/01/30 08:39:47;;;;;;;2.10;1.90;;;5.00;99.90;;;;;;4995565;28;20187;-56
2022/01/30 08:42:12;;;;;;;2.90;1.60;;;5.00;99.90;;;;;;4992533;28;20518;-54
2022/01/30 08:44:38;;;;;;;1.77;1.67;;;5.00;99.90;;;;;;4990989;28;20218;-57
2022/01/30 08:47:04;;;;;;;3.60;2.00;;;5.00;99.90;;;;;;4995422;28;20187;-54
2022/01/30 08:49:30;;;;;;;2.30;1.80;;;5.00;99.90;;;;;;4995663;28;20185;-57
2022/01/30 08:51:56;;;;;;;3.33;2.17;;;5.00;99.90;;;;;;4990550;28;20455;-55
2022/01/30 08:54:21;;;;;;;2.30;2.10;;;5.00;99.90;;;;;;4994778;28;20481;-55
2022/01/30 08:56:47;;;;;;;3.67;2.03;;;5.00;99.90;;;;;;4996448;28;20196;-53
2022/01/30 08:59:13;;;;;;;2.40;1.87;;;5.10;99.90;;;;;;4997034;28;20255;-55
2022/01/30 09:01:40;;;;;;;9.33;3.73;;;5.10;99.90;;;;;;4993078;28;20176;-55
2022/01/30 09:04:06;;;;;;;4.10;1.90;;;5.10;99.90;;;;;;4995782;28;20169;-55
2022/01/30 09:06:31;;;;;;;2.70;1.90;;;5.20;99.90;;;;;;5005353;28;20492;-54
2022/01/30 09:08:59;;;;;;;2.60;2.00;;;5.20;99.90;;;;;;4997774;28;20208;-56
2022/01/30 09:11:25;;;;;;;3.40;2.57;;;5.20;99.90;;;;;;4994003;28;20197;-55
2022/01/30 09:13:51;;;;;;;3.47;2.20;;;5.20;99.90;;;;;;5001381;28;21070;-57
2022/01/30 09:16:16;;;;;;;3.87;2.30;;;5.30;99.90;;;;;;5001844;28;20187;-52
2022/01/30 09:18:42;;;;;;;3.77;2.10;;;5.30;99.90;;;;;;5011149;28;20205;-54
2022/01/30 09:21:08;;;;;;;3.50;2.17;;;5.30;99.90;;;;;;4996455;28;20184;-53
2022/01/30 09:23:33;;;;;;;2.70;2.50;;;5.40;99.90;;;;;;4998289;28;20208;-53
2022/01/30 09:25:59;;;;;;;2.43;2.00;;;5.40;99.90;;;;;;4999935;28;20177;-55
2022/01/30 09:28:25;;;;;;;2.27;2.07;;;5.40;99.90;;;;;;4996286;28;20187;-54
2022/01/30 09:30:50;;;;;;;2.20;2.00;;;5.40;99.90;;;;;;5000668;28;20265;-52
2022/01/30 09:33:16;;;;;;;5.70;2.33;;;5.50;99.90;;;;;;4996262;28;20244;-52
2022/01/30 09:35:42;;;;;;;4.03;3.13;;;5.60;99.90;;;;;;4998588;28;20243;-53
2022/01/30 09:38:08;;;;;;;2.40;2.00;;;5.70;99.90;;;;;;4999606;28;20200;-52
2022/01/30 09:40:33;;;;;;;6.13;2.30;;;5.80;99.90;;;;;;4995541;28;20436;-52
2022/01/30 09:42:59;;;;;;;5.17;3.30;;;5.90;99.90;;;;;;5000887;28;20203;-53
2022/01/30 09:45:25;;;;;;;3.73;2.00;;;6.10;99.90;;;;;;4997509;28;20181;-56
2022/01/30 09:47:51;;;;;;;4.07;2.23;;;6.20;99.90;;;;;;4987465;28;20189;-56
2022/01/30 09:50:20;;;;;;;3.60;2.20;;;6.40;99.90;;;;;;4998561;28;20751;-54
2022/01/30 09:52:46;;;;;;;4.97;2.03;;;6.40;97.40;;;;;;4992407;28;20763;-57
2022/01/30 09:55:12;;;;;;;3.97;2.67;;;6.20;95.50;;;;;;4996471;28;20439;-56
2022/01/30 09:57:39;;;;;;;4.23;2.40;;;6.10;95.40;;;;;;5000764;28;20637;-55
2022/01/30 10:00:07;;;;;;;4.13;2.70;;;6.00;96.70;;;;;;5005001;28;20619;-55
2022/01/30 10:02:34;;;;;;;5.30;2.80;;;5.90;97.80;;;;;;5014280;28;20451;-56
2022/01/30 10:05:00;;;;;;;3.80;2.50;;;5.90;99.10;;;;;;4994842;28;20443;-53
2022/01/30 10:07:44;;;;;;;2.80;2.20;;;5.80;97.90;;;;;;4991967;28;22586;-56
2022/01/30 10:10:13;;;;;;;3.53;2.10;;;5.80;97.50;;;;;;4994870;28;20247;-57
2022/01/30 10:13:05;;;;;;;10.63;2.90;;;5.70;98.50;;;;;;5000944;28;20547;-57
2022/01/30 10:15:56;;;;;;;3.53;2.40;;;5.70;98.40;;;;;;4996237;28;20431;-56
2022/01/30 10:18:23;;;;;;;8.10;2.60;;;5.70;98.70;;;;;;4997649;28;20452;-55
2022/01/30 10:20:49;;;;;;;13.70;3.20;;;5.70;98.50;;;;;;5001060;28;20431;-55
2022/01/30 10:23:16;;;;;;;6.50;3.30;;;5.60;98.00;;;;;;5000484;28;21071;-54
2022/01/30 10:25:47;;;;;;;5.97;2.73;;;5.60;98.20;;;;;;4996434;28;20451;-57
2022/01/30 10:28:20;;;;;;;7.77;2.30;;;5.70;98.60;;;;;;5010917;28;20466;-55
2022/01/30 10:30:51;;;;;;;7.23;2.57;;;5.60;98.20;;;;;;5005702;28;20466;-56
2022/01/30 10:33:20;;;;;;;5.17;2.70;;;5.60;98.90;;;;;;4999742;28;20466;-58
2022/01/30 10:35:46;;;;;;;11.23;2.83;;;5.60;98.60;;;;;;4999832;28;20434;-57
2022/01/30 10:38:30;;;;;;;7.83;2.97;;;5.60;99.20;;;;;;5009982;28;20460;-55
2022/01/30 10:41:11;;;;;;;5.93;2.50;;;5.70;96.20;;;;;;5004095;28;20180;-55
2022/01/30 10:43:57;;;;;;;5.23;3.33;;;5.70;94.70;;;;;;4997562;28;20645;-56
2022/01/30 10:46:48;;;;;;;6.40;2.60;;;5.70;96.70;;;;;;5001889;28;20421;-57
2022/01/30 10:49:19;;;;;;;7.27;2.73;;;5.70;95.30;;;;;;4999325;28;20515;-57
2022/01/30 10:52:13;;;;;;;14.63;3.30;;;5.70;96.20;;;;;;5003212;28;20443;-55
2022/01/30 10:54:39;;;;;;;6.03;3.20;;;5.70;97.20;;;;;;5004972;28;20478;-57
2022/01/30 10:57:10;;;;;;;4.40;2.80;;;5.70;95.20;;;;;;4999469;28;20430;-56
2022/01/30 10:59:42;;;;;;;14.80;3.77;;;5.80;93.40;;;;;;5021047;28;20850;-56
2022/01/30 11:02:18;;;;;;;7.43;3.30;;;5.80;93.70;;;;;;4997050;28;20977;-59
2022/01/30 11:04:46;;;;;;;4.80;3.07;;;6.00;93.60;;;;;;5000277;28;20463;-57
2022/01/30 11:07:15;;;;;;;5.20;2.70;;;6.20;88.10;;;;;;4998654;28;21212;-57
2022/01/30 11:10:06;;;;;;;12.03;2.73;;;6.20;86.50;;;;;;4997194;28;20432;-55
2022/01/30 11:12:46;;;;;;;7.10;3.00;;;6.20;90.10;;;;;;5001517;28;20443;-56
2022/01/30 11:15:19;;;;;;;9.93;3.20;;;6.40;88.10;;;;;;5003904;28;20446;-56
2022/01/30 11:17:46;;;;;;;6.17;2.47;;;6.50;78.90;;;;;;5001187;28;20459;-57
2022/01/30 11:20:16;;;;;;;4.50;2.63;;;6.60;76.30;;;;;;5012862;28;20463;-56
2022/01/30 11:22:53;;;;;;;5.03;3.17;;;6.60;73.20;;;;;;5017532;28;20477;-56
2022/01/30 11:25:21;;;;;;;7.50;2.80;;;6.60;76.20;;;;;;5003497;28;20434;-55
2022/01/30 11:27:49;;;;;;;6.33;2.77;;;6.70;72.30;;;;;;5003126;28;20435;-56
2022/01/30 11:30:15;;;;;;;4.67;2.30;;;6.90;73.10;;;;;;5002802;28;20483;-56
2022/01/30 11:32:41;;;;;;;6.40;2.67;;;7.00;68.70;;;;;;4996742;28;20474;-56
2022/01/30 11:35:08;;;;;;;5.23;2.80;;;7.00;67.10;;;;;;4997692;28;20436;-56
2022/01/30 11:37:39;;;;;;;6.10;2.30;;;6.90;66.50;;;;;;5004675;28;20501;-56
2022/01/30 11:40:19;;;;;;;8.63;3.67;;;7.00;71.20;;;;;;4993219;28;20428;-56
2022/01/30 11:42:48;;;;;;;12.73;2.90;;;7.20;69.10;;;;;;4997326;28;20460;-57
2022/01/30 11:45:31;;;;;;;5.30;2.67;;;7.40;69.40;;;;;;5009373;28;20490;-60
2022/01/30 11:48:03;;;;;;;8.20;2.90;;;7.70;67.40;;;;;;4999783;28;20442;-56
2022/01/30 11:50:34;;;;;;;11.57;2.70;;;8.00;63.90;;;;;;4996873;28;20441;-59
2022/01/30 11:52:59;;;;;;;6.10;2.67;;;8.20;60.80;;;;;;4996196;28;20497;-59
2022/01/30 11:55:41;;;;;;;9.13;2.70;;;8.40;60.60;;;;;;4999098;28;20952;-58
2022/01/30 11:58:26;;;;;;;7.13;2.50;;;8.60;59.40;;;;;;4995434;28;20196;-57
2022/01/30 12:00:52;;;;;;;7.30;2.27;;;8.60;59.00;;;;;;4996597;28;20444;-57
2022/01/30 12:03:21;;;;;;;9.00;2.80;;;8.80;59.70;;;;;;4996742;28;20473;-57
2022/01/30 12:05:47;;;;;;;10.13;3.27;;;9.10;58.70;;;;;;4996781;28;20180;-60
2022/01/30 12:08:42;;;;;;;9.93;2.80;;;9.40;56.60;;;;;;4998475;28;20788;-56
2022/01/30 12:11:36;;;;;;;6.80;3.00;;;9.80;56.70;;;;;;4997120;28;21012;-56
2022/01/30 12:14:12;;;;;;;6.80;2.73;;;10.40;55.20;;;;;;4999629;28;20528;-55
2022/01/30 12:16:56;;;;;;;4.20;2.30;;;10.90;53.70;;;;;;4995425;28;20443;-55
2022/01/30 12:19:30;;;;;;;6.10;2.70;;;11.20;51.90;;;;;;4997202;28;20458;-53
2022/01/30 12:21:57;;;;;;;5.47;2.77;;;11.80;52.20;;;;;;4999842;28;20438;-56
2022/01/30 12:24:31;;;;;;;7.40;2.77;;;12.20;51.00;;;;;;5000065;28;20454;-55
2022/01/30 12:27:02;;;;;;;5.70;3.20;;;12.10;49.00;;;;;;4997946;28;20427;-58
2022/01/30 12:29:44;;;;;;;5.37;2.10;;;12.00;49.10;;;;;;4995927;28;20447;-57
2022/01/30 12:32:25;;;;;;;5.33;2.47;;;11.50;49.10;;;;;;4997195;28;20494;-58
2022/01/30 12:35:00;;;;;;;9.03;2.47;;;10.80;49.90;;;;;;4995323;28;20444;-59
2022/01/30 12:37:31;;;;;;;6.50;2.60;;;10.10;50.90;;;;;;5003339;28;20461;-57
2022/01/30 12:39:59;;;;;;;4.17;2.63;;;9.60;52.30;;;;;;4997416;28;20439;-58
2022/01/30 12:42:30;;;;;;;6.47;2.60;;;9.50;51.60;;;;;;4999415;28;20561;-57
2022/01/30 12:45:00;;;;;;;5.07;2.43;;;9.30;51.50;;;;;;4998933;28;20808;-59
2022/01/30 12:47:26;;;;;;;14.03;2.70;;;9.00;52.10;;;;;;5006325;28;20427;-56
2022/01/30 12:49:56;;;;;;;10.03;3.10;;;8.70;53.00;;;;;;5001857;28;20432;-60
2022/01/30 12:52:36;;;;;;;6.40;2.87;;;8.50;53.10;;;;;;4997239;28;20458;-59
2022/01/30 12:55:09;;;;;;;3.87;2.53;;;8.20;52.50;;;;;;4998902;28;20439;-60
2022/01/30 12:57:36;;;;;;;5.47;2.60;;;8.00;52.10;;;;;;4997968;28;21004;-56
2022/01/30 13:00:07;;;;;;;10.83;2.80;;;7.80;52.80;;;;;;4998720;28;20438;-57
2022/01/30 13:02:39;;;;;;;6.47;2.30;;;7.60;52.80;;;;;;5000087;28;20478;-56
2022/01/30 13:05:10;;;;;;;8.77;2.47;;;7.50;52.90;;;;;;4999416;28;20789;-57
2022/01/30 13:07:36;;;;;;;8.30;2.60;;;7.50;53.10;;;;;;4996927;28;20471;-57
2022/01/30 13:10:05;;;;;;;10.63;2.50;;;7.40;53.40;;;;;;4998352;28;20446;-58
2022/01/30 13:12:32;;;;;;;6.90;2.43;;;7.40;54.10;;;;;;4995251;28;20468;-56
2022/01/30 13:14:58;;;;;;;7.57;2.33;;;7.30;54.30;;;;;;4998783;28;20438;-58
2022/01/30 13:17:29;;;;;;;8.03;2.40;;;7.30;54.20;;;;;;5008725;28;20529;-58
2022/01/30 13:19:55;;;;;;;8.47;3.00;;;7.30;54.00;;;;;;4997707;28;20542;-57
2022/01/30 13:22:29;;;;;;;5.70;2.33;;;7.30;54.60;;;;;;4995959;28;20459;-57
2022/01/30 13:24:59;;;;;;;6.17;2.70;;;7.40;54.90;;;;;;4996895;28;20240;-58
2022/01/30 13:27:25;;;;;;;5.20;2.80;;;7.40;54.90;;;;;;4996355;28;20443;-57
2022/01/30 13:29:54;;;;;;;6.50;2.67;;;7.50;54.80;;;;;;5001574;28;20432;-57
2022/01/30 13:34:49;;;;;;;5.87;2.47;;;7.70;55.10;;;;;;5023031;28;20510;-63
2022/01/30 13:37:18;;;;;;;13.37;3.20;;;7.80;54.90;;;;;;5019789;28;20600;-64
2022/01/30 13:39:49;;;;;;;10.33;3.50;;;7.90;54.10;;;;;;5027641;28;20453;-63
2022/01/30 13:47:59;;;;;;;8.23;2.33;;;8.00;54.00;;;;;;5006201;28;20444;-64
2022/01/30 13:50:37;;;;;;;5.70;2.47;;;8.00;53.60;;;;;;5004236;28;20459;-64
2022/01/30 13:53:09;;;;;;;9.63;2.97;;;8.20;54.30;;;;;;5009313;28;20455;-63
2022/01/30 13:55:57;;;;;;;8.13;2.67;;;8.50;53.70;;;;;;5008406;28;20510;-63
2022/01/30 13:58:30;;;;;;;3.80;2.37;;;8.80;52.50;;;;;;4996842;28;20466;-63
2022/01/30 14:00:56;;;;;;;5.70;2.90;;;9.10;51.30;;;;;;5007740;28;20439;-63
2022/01/30 14:03:29;;;;;;;4.90;2.20;;;9.40;51.50;;;;;;5009141;28;20536;-64
2022/01/30 14:05:56;;;;;;;10.67;3.10;;;9.90;50.80;;;;;;5007002;28;20415;-59
2022/01/30 14:08:24;;;;;;;9.57;2.57;;;10.20;48.50;;;;;;5006931;28;20445;-60
2022/01/30 14:10:50;;;;;;;9.57;2.80;;;10.30;48.80;;;;;;5002146;28;20431;-62
2022/01/30 14:13:23;;;;;;;9.40;3.60;;;10.00;48.50;;;;;;5004410;28;20530;-62
2022/01/30 14:16:07;;;;;;;6.23;2.70;;;9.50;49.70;;;;;;5004028;28;20438;-61